DLH65N EDDF-LOWW
Flight info
| Callsign | DLH65N |
|---|---|
| Flight time | N/A |
| Altitude | 31000 |
| Route | CINDY8S/18 CINDY Z74 HAREM DCT ASLEP DCT TAKUT DCT DINKU L603 BESNI L605 MIQ DCT ALUTU DCT BIBAG Q104 AKIMA DCT MASUR MASUR3W |
| Aircraft | A319/M-SDE2E3FGIJ1LORWXYZ/HB1 |
Departure
| Time | N/A |
|---|---|
| Airport | Frankfurt Main Airport (EDDF) |
Arrival
| Time | 2026-04-24 19:09 |
|---|---|
| Airport | Vienna International Airport (LOWW) |
| Time | Latitude | Longitude | Altitude | Speed | Heading |
|---|---|---|---|---|---|
| 2026-04-24 18:54 | 48.43935 | 15.98271 | 13677 ft | 388 kts | 110° |
| 2026-04-24 18:55 | 48.41891 | 16.05764 | 13144 ft | 385 kts | 110° |
| 2026-04-24 18:55 | 48.40872 | 16.09497 | 12890 ft | 384 kts | 110° |
| 2026-04-24 18:55 | 48.39861 | 16.13202 | 12630 ft | 378 kts | 110° |
| 2026-04-24 18:56 | 48.38876 | 16.16797 | 12375 ft | 365 kts | 110° |
| 2026-04-24 18:56 | 48.37921 | 16.20271 | 12122 ft | 355 kts | 110° |
| 2026-04-24 18:56 | 48.36992 | 16.23654 | 11875 ft | 345 kts | 110° |
| 2026-04-24 18:56 | 48.36099 | 16.26898 | 11641 ft | 336 kts | 110° |
| 2026-04-24 18:57 | 48.35209 | 16.30119 | 11388 ft | 329 kts | 110° |
| 2026-04-24 18:57 | 48.34341 | 16.33256 | 11159 ft | 322 kts | 110° |
| 2026-04-24 18:57 | 48.33488 | 16.36335 | 10909 ft | 317 kts | 110° |
| 2026-04-24 18:57 | 48.32644 | 16.39385 | 10664 ft | 315 kts | 110° |
| 2026-04-24 18:58 | 48.31804 | 16.42421 | 10421 ft | 314 kts | 110° |
| 2026-04-24 18:58 | 48.30956 | 16.45411 | 10187 ft | 313 kts | 113° |
| 2026-04-24 18:58 | 48.29890 | 16.48268 | 9968 ft | 313 kts | 122° |
| 2026-04-24 18:58 | 48.28574 | 16.50884 | 9844 ft | 314 kts | 130° |
| 2026-04-24 18:59 | 48.27039 | 16.53211 | 9710 ft | 314 kts | 138° |
| 2026-04-24 18:59 | 48.25318 | 16.55232 | 9567 ft | 313 kts | 143° |
| 2026-04-24 18:59 | 48.23594 | 16.57162 | 9367 ft | 303 kts | 143° |
| 2026-04-24 18:59 | 48.21929 | 16.59037 | 9143 ft | 296 kts | 143° |
| 2026-04-24 19:00 | 48.20345 | 16.60925 | 8922 ft | 288 kts | 138° |
| 2026-04-24 19:00 | 48.18945 | 16.63055 | 8594 ft | 285 kts | 130° |
| 2026-04-24 19:00 | 48.17761 | 16.65382 | 8236 ft | 283 kts | 122° |
| 2026-04-24 19:00 | 48.16773 | 16.67928 | 7859 ft | 282 kts | 115° |
| 2026-04-24 19:01 | 48.15914 | 16.70569 | 7471 ft | 281 kts | 115° |
| 2026-04-24 19:01 | 48.15050 | 16.73188 | 7103 ft | 280 kts | 115° |
| 2026-04-24 19:01 | 48.14184 | 16.75798 | 6743 ft | 279 kts | 116° |
| 2026-04-24 19:01 | 48.13319 | 16.78388 | 6371 ft | 277 kts | 116° |
| 2026-04-24 19:02 | 48.12749 | 16.80098 | 6110 ft | 277 kts | 116° |
| 2026-04-24 19:02 | 48.11607 | 16.83533 | 5609 ft | 274 kts | 115° |
| 2026-04-24 19:02 | 48.10759 | 16.86085 | 5260 ft | 272 kts | 115° |
| 2026-04-24 19:02 | 48.09929 | 16.88578 | 4910 ft | 269 kts | 115° |
| 2026-04-24 19:03 | 48.08865 | 16.90858 | 4538 ft | 267 kts | 139° |
| 2026-04-24 19:03 | 48.07261 | 16.92069 | 4374 ft | 253 kts | 172° |
| 2026-04-24 19:03 | 48.05589 | 16.91916 | 4225 ft | 235 kts | 205° |
| 2026-04-24 19:03 | 48.04314 | 16.90556 | 3958 ft | 221 kts | 239° |
| 2026-04-24 19:04 | 48.03746 | 16.88499 | 3643 ft | 213 kts | 262° |
| 2026-04-24 19:04 | 48.03470 | 16.86345 | 3351 ft | 214 kts | 265° |
| 2026-04-24 19:04 | 48.03223 | 16.84147 | 3225 ft | 216 kts | 265° |
| 2026-04-24 19:04 | 48.03126 | 16.81935 | 3120 ft | 211 kts | 282° |
| 2026-04-24 19:05 | 48.03579 | 16.79896 | 3030 ft | 206 kts | 300° |
| 2026-04-24 19:05 | 48.04220 | 16.77963 | 3029 ft | 207 kts | 300° |
| 2026-04-24 19:05 | 48.04848 | 16.76058 | 3026 ft | 203 kts | 300° |
| 2026-04-24 19:05 | 48.05451 | 16.74218 | 2975 ft | 191 kts | 300° |
| 2026-04-24 19:06 | 48.06020 | 16.72482 | 2803 ft | 182 kts | 300° |
| 2026-04-24 19:06 | 48.06572 | 16.70801 | 2564 ft | 176 kts | 300° |
| 2026-04-24 19:06 | 48.07098 | 16.69195 | 2348 ft | 168 kts | 300° |
| 2026-04-24 19:06 | 48.07599 | 16.67667 | 2125 ft | 160 kts | 300° |
| 2026-04-24 19:07 | 48.08072 | 16.66221 | 1926 ft | 147 kts | 301° |
| 2026-04-24 19:07 | 48.08490 | 16.64939 | 1744 ft | 131 kts | 301° |
| 2026-04-24 19:07 | 48.08756 | 16.64134 | 1619 ft | 128 kts | 301° |
| 2026-04-24 19:07 | 48.09285 | 16.62602 | 1381 ft | 123 kts | 301° |
| 2026-04-24 19:08 | 48.09666 | 16.61483 | 1220 ft | 124 kts | 298° |
| 2026-04-24 19:08 | 48.10014 | 16.60305 | 1060 ft | 124 kts | 296° |
| 2026-04-24 19:08 | 48.10398 | 16.59129 | 884 ft | 127 kts | 297° |
| 2026-04-24 19:08 | 48.10775 | 16.57923 | 697 ft | 126 kts | 298° |
| 2026-04-24 19:09 | 48.11147 | 16.56828 | 618 ft | 105 kts | 297° |
| 2026-04-24 19:09 | 48.11364 | 16.56167 | 618 ft | 56 kts | 295° |
| 2026-04-24 19:09 | 48.11528 | 16.55658 | 612 ft | 52 kts | 297° |
| 2026-04-24 19:09 | 48.11729 | 16.55245 | 610 ft | 41 kts | 317° |
| 2026-04-24 19:10 | 48.11867 | 16.55147 | 610 ft | 11 kts | 13° |
| 2026-04-24 19:10 | 48.11890 | 16.55161 | 614 ft | 1 kts | 25° |
| 2026-04-24 19:10 | 48.11889 | 16.55183 | 610 ft | 5 kts | 104° |
| 2026-04-24 19:10 | 48.11861 | 16.55273 | 616 ft | 14 kts | 120° |
| 2026-04-24 19:11 | 48.11807 | 16.55428 | 618 ft | 19 kts | 115° |
| 2026-04-24 19:11 | 48.11746 | 16.55625 | 612 ft | 22 kts | 115° |
| 2026-04-24 19:11 | 48.11677 | 16.55836 | 613 ft | 23 kts | 116° |
| 2026-04-24 19:11 | 48.11608 | 16.56047 | 614 ft | 20 kts | 115° |
| 2026-04-24 19:12 | 48.11601 | 16.56186 | 610 ft | 0 kts | 64° |
| 2026-04-24 19:12 | 48.11610 | 16.56196 | 614 ft | 6 kts | 36° |
| 2026-04-24 19:12 | 48.11665 | 16.56251 | 610 ft | 11 kts | 29° |
| 2026-04-24 19:12 | 48.11741 | 16.56307 | 617 ft | 14 kts | 31° |
| 2026-04-24 19:13 | 48.11753 | 16.56390 | 610 ft | 14 kts | 109° |
| 2026-04-24 19:13 | 48.11689 | 16.56579 | 612 ft | 16 kts | 116° |
| 2026-04-24 19:13 | 48.11707 | 16.56654 | 610 ft | 9 kts | 26° |
| 2026-04-24 19:13 | 48.11746 | 16.56683 | 610 ft | 0 kts | 26° |